createdAt,value
2022-12-25T00:00:18.403Z,100638.75
2022-12-25T00:02:51.121Z,100629.59
2022-12-25T00:05:18.741Z,100631.34
2022-12-25T00:07:46.168Z,100639.53
2022-12-25T00:10:13.596Z,100641.38
2022-12-25T00:12:41.002Z,100640.22
2022-12-25T00:15:08.877Z,100632.75
2022-12-25T00:17:36.201Z,100637.44
2022-12-25T00:20:03.960Z,100630.00
2022-12-25T00:22:31.324Z,100629.28
2022-12-25T00:24:58.707Z,100630.53
2022-12-25T00:27:26.107Z,100627.22
2022-12-25T00:29:53.502Z,100626.22
2022-12-25T00:32:20.841Z,100627.06
2022-12-25T00:34:48.251Z,100624.44
2022-12-25T00:37:15.756Z,100638.28
2022-12-25T00:39:43.126Z,100633.50
2022-12-25T00:42:20.207Z,100636.06
2022-12-25T00:44:48.849Z,100649.91
2022-12-25T00:47:18.298Z,100657.19
2022-12-25T00:49:45.939Z,100660.69
2022-12-25T00:52:13.530Z,100655.28
2022-12-25T00:54:40.906Z,100658.75
2022-12-25T00:57:08.318Z,100656.88
2022-12-25T00:59:35.760Z,100654.94
2022-12-25T01:02:22.056Z,100657.72
2022-12-25T01:04:52.052Z,100659.47
2022-12-25T01:07:20.247Z,100655.69
2022-12-25T01:10:06.722Z,100661.03
2022-12-25T01:12:37.025Z,100669.03
2022-12-25T01:15:07.269Z,100679.06
2022-12-25T01:17:34.968Z,100680.94
2022-12-25T01:20:02.831Z,100692.91
2022-12-25T01:22:30.245Z,100702.59
2022-12-25T01:24:57.596Z,100701.56
2022-12-25T01:27:25.352Z,100701.56
2022-12-25T01:29:52.686Z,100693.09
2022-12-25T01:32:20.038Z,100694.13
2022-12-25T01:34:53.771Z,100691.91
2022-12-25T01:37:24.875Z,100682.03
2022-12-25T01:39:52.273Z,100688.25
2022-12-25T01:42:23.762Z,100687.25
2022-12-25T01:44:51.241Z,100689.00
2022-12-25T01:47:18.890Z,100691.03
2022-12-25T01:49:49.958Z,100679.47
2022-12-25T01:52:25.020Z,100674.09
2022-12-25T01:54:57.715Z,100674.97
2022-12-25T01:57:34.712Z,100679.66
2022-12-25T02:00:02.505Z,100685.88
2022-12-25T02:02:32.632Z,100691.25
2022-12-25T02:05:16.083Z,100696.97
2022-12-25T02:07:45.404Z,100696.97
2022-12-25T02:10:13.076Z,100693.00
2022-12-25T02:12:41.350Z,100696.81
2022-12-25T02:15:13.382Z,100686.06
2022-12-25T02:17:55.955Z,100683.16
2022-12-25T02:20:43.217Z,100685.91
2022-12-25T02:23:13.275Z,100682.44
2022-12-25T02:25:59.159Z,100685.91
2022-12-25T02:28:37.104Z,100680.22
2022-12-25T02:31:38.535Z,100682.09
2022-12-25T02:34:14.499Z,100682.81
2022-12-25T02:37:06.630Z,100688.34
2022-12-25T02:39:57.771Z,100688.34
2022-12-25T02:42:53.189Z,100686.28
2022-12-25T02:45:48.582Z,100690.59
2022-12-25T02:48:37.342Z,100693.22
2022-12-25T02:51:26.791Z,100695.16
2022-12-25T02:54:16.330Z,100701.19
2022-12-25T02:57:07.949Z,100699.47
2022-12-25T02:59:58.623Z,100709.84
2022-12-25T03:02:48.252Z,100706.72
2022-12-25T03:05:39.908Z,100701.38
2022-12-25T03:08:12.543Z,100720.78
2022-12-25T03:11:05.644Z,100700.50
2022-12-25T03:13:39.084Z,100699.47
2022-12-25T03:16:26.080Z,100704.16
2022-12-25T03:18:55.792Z,100711.56
2022-12-25T03:21:42.035Z,100719.03
2022-12-25T03:24:28.256Z,100723.53
2022-12-25T03:26:57.996Z,100727.16
2022-12-25T03:29:49.057Z,100731.84
2022-12-25T03:32:29.090Z,100732.53
2022-12-25T03:35:24.380Z,100726.13
2022-12-25T03:38:29.960Z,100729.44
2022-12-25T03:41:25.136Z,100729.63
2022-12-25T03:44:19.275Z,100732.41
2022-12-25T03:47:15.596Z,100733.97
2022-12-25T03:50:14.348Z,100725.47
2022-12-25T03:53:03.106Z,100742.09
2022-12-25T03:55:50.580Z,100746.25
2022-12-25T03:58:41.006Z,100745.06
2022-12-25T04:01:27.121Z,100747.81
2022-12-25T04:04:13.463Z,100746.06
2022-12-25T04:07:00.130Z,100740.72
2022-12-25T04:09:46.765Z,100742.97
2022-12-25T04:12:32.539Z,100749.22
2022-12-25T04:15:18.785Z,100748.31
2022-12-25T04:18:05.205Z,100746.59
2022-12-25T04:20:51.330Z,100736.25
2022-12-25T04:23:37.412Z,100749.22
2022-12-25T04:26:23.217Z,100753.56
2022-12-25T04:29:09.192Z,100749.91
2022-12-25T04:31:55.144Z,100764.94
2022-12-25T04:34:41.376Z,100763.22
2022-12-25T04:37:08.735Z,100761.88
2022-12-25T04:39:36.125Z,100761.88
2022-12-25T04:42:03.595Z,100759.09
2022-12-25T04:44:30.956Z,100759.09
2022-12-25T04:46:58.478Z,100759.94
2022-12-25T04:49:26.044Z,100766.53
2022-12-25T04:51:53.440Z,100769.00
2022-12-25T04:54:20.839Z,100772.47
2022-12-25T04:56:48.203Z,100768.66
2022-12-25T04:59:15.649Z,100759.44
2022-12-25T05:01:43.195Z,100752.91
2022-12-25T05:04:10.789Z,100756.69
2022-12-25T05:06:39.008Z,100760.50
2022-12-25T05:09:06.689Z,100763.09
2022-12-25T05:11:34.143Z,100765.00
2022-12-25T05:14:01.649Z,100759.44
2022-12-25T05:16:29.136Z,100772.31
2022-12-25T05:18:56.996Z,100771.25
2022-12-25T05:21:24.365Z,100775.06
2022-12-25T05:23:53.150Z,100774.19
2022-12-25T05:26:23.224Z,100779.72
2022-12-25T05:28:51.032Z,100776.63
2022-12-25T05:31:19.303Z,100777.84
2022-12-25T05:33:50.443Z,100785.81
2022-12-25T05:36:18.583Z,100777.66
2022-12-25T05:38:46.102Z,100775.06
2022-12-25T05:41:13.535Z,100781.13
2022-12-25T05:43:41.075Z,100785.97
2022-12-25T05:46:10.262Z,100787.00
2022-12-25T05:48:38.085Z,100781.63
2022-12-25T05:51:08.300Z,100774.03
2022-12-25T05:53:37.799Z,100777.66
2022-12-25T05:56:07.536Z,100776.97
2022-12-25T05:58:37.238Z,100778.84
2022-12-25T06:01:10.912Z,100777.47
2022-12-25T06:03:38.337Z,100778.16
2022-12-25T06:06:07.330Z,100778.50
2022-12-25T06:08:35.175Z,100789.09
2022-12-25T06:11:04.545Z,100797.72
2022-12-25T06:13:32.974Z,100796.38
2022-12-25T06:16:04.206Z,100804.13
2022-12-25T06:18:31.744Z,100806.91
2022-12-25T06:20:59.120Z,100807.59
2022-12-25T06:23:26.524Z,100805.16
2022-12-25T06:25:53.879Z,100811.75
2022-12-25T06:28:21.257Z,100815.22
2022-12-25T06:30:48.602Z,100815.91
2022-12-25T06:33:15.984Z,100812.66
2022-12-25T06:35:43.322Z,100812.09
2022-12-25T06:38:10.732Z,100813.88
2022-12-25T06:40:38.098Z,100816.66
2022-12-25T06:43:05.518Z,100816.78
2022-12-25T06:45:35.896Z,100817.66
2022-12-25T06:48:03.440Z,100812.84
2022-12-25T06:50:30.834Z,100813.00
2022-12-25T06:52:58.325Z,100821.16
2022-12-25T06:55:25.771Z,100824.06
2022-12-25T06:57:53.174Z,100826.84
2022-12-25T07:00:20.924Z,100836.19
2022-12-25T07:02:49.547Z,100836.34
2022-12-25T07:05:17.097Z,100836.34
2022-12-25T07:07:44.477Z,100842.44
2022-12-25T07:10:11.893Z,100846.09
2022-12-25T07:12:39.304Z,100839.81
2022-12-25T07:15:07.382Z,100845.34
2022-12-25T07:17:35.709Z,100849.72
2022-12-25T07:20:03.252Z,100847.13
2022-12-25T07:22:30.694Z,100850.41
2022-12-25T07:24:58.154Z,100859.94
2022-12-25T07:27:25.603Z,100855.44
2022-12-25T07:29:52.940Z,100857.19
2022-12-25T07:32:20.251Z,100866.19
2022-12-25T07:34:47.552Z,100865.31
2022-12-25T07:37:15.043Z,100874.50
2022-12-25T07:39:42.403Z,100869.28
2022-12-25T07:42:09.770Z,100881.22
2022-12-25T07:44:38.434Z,100880.03
2022-12-25T07:47:05.789Z,100888.19
2022-12-25T07:49:33.208Z,100885.59
2022-12-25T07:52:00.641Z,100890.09
2022-12-25T07:54:27.971Z,100888.34
2022-12-25T07:56:55.403Z,100891.84
2022-12-25T07:59:22.737Z,100898.09
2022-12-25T08:01:50.601Z,100902.78
2022-12-25T08:04:18.257Z,100916.31
2022-12-25T08:06:45.801Z,100926.84
2022-12-25T08:09:13.452Z,100924.63
2022-12-25T08:11:45.846Z,100924.22
2022-12-25T08:14:14.209Z,100928.00
2022-12-25T08:16:42.375Z,100915.53
2022-12-25T08:19:10.552Z,100927.66
2022-12-25T08:21:38.274Z,100923.84
2022-12-25T08:24:05.927Z,100924.34
2022-12-25T08:26:33.492Z,100919.81
2022-12-25T08:29:00.813Z,100931.44
2022-12-25T08:31:30.314Z,100932.66
2022-12-25T08:33:59.080Z,100938.53
2022-12-25T08:36:27.265Z,100937.78
2022-12-25T08:39:02.182Z,100945.47
2022-12-25T08:41:31.442Z,100947.13
2022-12-25T08:43:58.955Z,100960.13
2022-12-25T08:46:26.417Z,100950.94
2022-12-25T08:48:53.837Z,100957.53
2022-12-25T08:51:22.837Z,100963.06
2022-12-25T08:53:52.578Z,100968.44
2022-12-25T08:56:20.282Z,100979.34
2022-12-25T08:58:47.671Z,100977.94
2022-12-25T09:01:15.238Z,100982.13
2022-12-25T09:03:43.381Z,100983.16
2022-12-25T09:06:13.450Z,100983.50
2022-12-25T09:08:48.068Z,100984.34
2022-12-25T09:11:19.434Z,100978.81
2022-12-25T09:13:47.944Z,100977.06
2022-12-25T09:16:18.926Z,100972.69
2022-12-25T09:18:46.550Z,100978.09
2022-12-25T09:21:16.113Z,100980.31
2022-12-25T09:23:44.063Z,100980.31
2022-12-25T09:26:14.260Z,100968.38
2022-12-25T09:28:46.796Z,100972.00
2022-12-25T09:31:16.217Z,100959.19
2022-12-25T09:33:43.786Z,100970.34
2022-12-25T09:36:11.429Z,100970.97
2022-12-25T09:38:39.127Z,100967.50
2022-12-25T09:41:34.009Z,100966.47
2022-12-25T09:44:06.599Z,100958.16
2022-12-25T09:46:47.350Z,100958.16
2022-12-25T09:49:23.889Z,100965.44
2022-12-25T09:52:02.890Z,100964.72
2022-12-25T09:54:59.251Z,100972.88
2022-12-25T09:57:26.693Z,100969.41
2022-12-25T09:59:55.996Z,100977.72
2022-12-25T10:02:37.056Z,100973.91
2022-12-25T10:05:16.847Z,100969.56
2022-12-25T10:07:57.226Z,100973.19
2022-12-25T10:10:39.921Z,100974.22
2022-12-25T10:13:19.036Z,100977.88
2022-12-25T10:15:52.125Z,100978.72
2022-12-25T10:19:07.426Z,100978.44
2022-12-25T10:21:36.531Z,100978.56
2022-12-25T10:24:11.343Z,100978.56
2022-12-25T10:26:38.950Z,100968.19
2022-12-25T10:29:19.366Z,100969.22
2022-12-25T10:31:49.335Z,100968.53
2022-12-25T10:34:17.148Z,100966.66
2022-12-25T10:36:46.287Z,100956.56
2022-12-25T10:39:19.946Z,100959.19
2022-12-25T10:42:26.954Z,100960.06
2022-12-25T10:45:02.307Z,100955.22
2022-12-25T10:47:32.967Z,100958.34
2022-12-25T10:50:07.786Z,100949.53
2022-12-25T10:52:35.909Z,100959.19
2022-12-25T10:55:13.391Z,100948.09
2022-12-25T11:00:32.846Z,101057.03
2022-12-25T11:03:00.985Z,101064.00
2022-12-25T11:05:34.187Z,101067.88
2022-12-25T11:08:03.222Z,101066.16
2022-12-25T11:10:34.579Z,101052.75
2022-12-25T11:13:03.219Z,101058.84
2022-12-25T11:15:30.536Z,101056.91
2022-12-25T11:17:58.061Z,101052.25
2022-12-25T11:20:26.283Z,101050.06
2022-12-25T11:22:53.672Z,101053.25
2022-12-25T11:25:26.110Z,101031.66
2022-12-25T11:28:13.442Z,101036.38
2022-12-25T11:30:41.359Z,101049.09
2022-12-25T11:33:12.532Z,101037.03
2022-12-25T11:35:49.878Z,101026.28
2022-12-25T11:38:17.342Z,101031.38
2022-12-25T11:40:49.158Z,101034.69
2022-12-25T11:43:16.455Z,101037.50
2022-12-25T11:45:53.036Z,101034.19
2022-12-25T11:48:31.703Z,101042.38
2022-12-25T11:51:02.323Z,101038.84
2022-12-25T11:53:37.390Z,101043.34
2022-12-25T11:56:20.328Z,101038.22
2022-12-25T11:58:54.946Z,101038.34
2022-12-25T12:01:37.304Z,101026.84
2022-12-25T12:04:18.460Z,101039.44
2022-12-25T12:06:54.158Z,101041.25
2022-12-25T12:09:43.504Z,101033.72
2022-12-25T12:12:26.806Z,101033.44
2022-12-25T12:15:06.958Z,101043.22
2022-12-25T12:17:34.598Z,101045.91
2022-12-25T12:20:29.577Z,101041.50
2022-12-25T12:22:58.035Z,101033.22
2022-12-25T12:25:26.104Z,101038.94
2022-12-25T12:28:04.839Z,101049.66
2022-12-25T12:30:35.664Z,101030.16
2022-12-25T12:33:06.756Z,101040.75
2022-12-25T12:35:38.748Z,101020.63
2022-12-25T12:38:12.719Z,101032.84
2022-12-25T12:40:44.614Z,101020.75
2022-12-25T12:43:43.162Z,101039.19
2022-12-25T12:46:23.061Z,101032.84
2022-12-25T12:49:09.099Z,101033.94
2022-12-25T12:51:38.604Z,101036.63
2022-12-25T12:54:23.297Z,101042.00
2022-12-25T12:57:00.962Z,101035.78
2022-12-25T12:59:38.920Z,101025.38
2022-12-25T13:02:26.110Z,101028.69
2022-12-25T13:05:08.117Z,101028.69
2022-12-25T13:07:58.238Z,101014.88
2022-12-25T13:10:34.161Z,101030.41
2022-12-25T13:13:06.301Z,101030.03
2022-12-25T13:15:35.596Z,101022.06
2022-12-25T13:18:07.074Z,101038.56
2022-12-25T13:20:40.353Z,101044.06
2022-12-25T13:23:24.647Z,101044.06
2022-12-25T13:26:00.530Z,101042.34
2022-12-25T13:28:30.239Z,101042.25
2022-12-25T13:31:07.287Z,101031.09
2022-12-25T13:33:34.903Z,101046.75
2022-12-25T13:36:02.560Z,101050.28
2022-12-25T13:38:29.989Z,101041.50
2022-12-25T13:41:17.626Z,101034.28
2022-12-25T13:43:45.997Z,101041.50
2022-12-25T13:46:15.172Z,101045.91
2022-12-25T13:48:43.021Z,101038.81
2022-12-25T13:51:16.268Z,101031.09
2022-12-25T13:53:44.355Z,101039.78
2022-12-25T13:56:16.291Z,101040.66
2022-12-25T13:58:46.758Z,101025.97
2022-12-25T14:01:16.459Z,101046.13
2022-12-25T14:03:46.667Z,101052.34
2022-12-25T14:06:31.291Z,101055.16
2022-12-25T14:08:59.521Z,101057.22
2022-12-25T14:11:29.562Z,101061.38
2022-12-25T14:14:01.596Z,101061.38
2022-12-25T14:16:29.381Z,101052.09
2022-12-25T14:18:59.719Z,101054.78
2022-12-25T14:21:38.608Z,101066.88
2022-12-25T14:24:14.148Z,101060.75
2022-12-25T14:26:42.036Z,101066.03
2022-12-25T14:29:18.548Z,101068.69
2022-12-25T14:31:47.725Z,101071.50
2022-12-25T14:34:18.689Z,101071.38
2022-12-25T14:36:46.647Z,101058.53
2022-12-25T14:39:25.223Z,101064.41
2022-12-25T14:41:53.716Z,101069.91
2022-12-25T14:44:31.683Z,101075.16
2022-12-25T14:47:11.358Z,101085.91
2022-12-25T14:49:39.298Z,101085.91
2022-12-25T14:52:38.859Z,101085.91
2022-12-25T14:55:17.139Z,101075.50
2022-12-25T14:57:49.080Z,101074.78
2022-12-25T15:00:34.964Z,101089.56
2022-12-25T15:03:05.883Z,101072.19
2022-12-25T15:05:38.977Z,101082.47
2022-12-25T15:08:12.295Z,101075.28
2022-12-25T15:13:29.524Z,101070.38
2022-12-25T15:16:04.211Z,101072.72
2022-12-25T15:18:39.651Z,101073.91
2022-12-25T15:21:09.678Z,101071.00
2022-12-25T15:23:37.110Z,101075.41
2022-12-25T15:26:04.517Z,101077.09
2022-12-25T15:28:31.931Z,101062.44
2022-12-25T15:30:59.376Z,101083.44
2022-12-25T15:33:26.712Z,101086.13
2022-12-25T15:35:54.242Z,101070.88
2022-12-25T15:38:21.601Z,101077.22
2022-12-25T15:40:49.016Z,101080.88
2022-12-25T15:43:40.443Z,101078.09
2022-12-25T15:46:04.197Z,101073.69
2022-12-25T15:48:31.620Z,101070.13
2022-12-25T15:50:58.976Z,101073.69
2022-12-25T15:53:27.022Z,101077.34
2022-12-25T15:55:54.431Z,101068.53
2022-12-25T15:58:23.129Z,101067.47
2022-12-25T16:00:50.788Z,101073.69
2022-12-25T16:03:18.309Z,101074.66
2022-12-25T16:05:45.749Z,101064.78
2022-12-25T16:08:13.140Z,101063.06
2022-12-25T16:10:40.607Z,101061.22
2022-12-25T16:13:07.938Z,101059.53
2022-12-25T16:15:35.503Z,101063.91
2022-12-25T16:18:03.598Z,101066.59
2022-12-25T16:20:31.086Z,101058.78
2022-12-25T16:22:58.472Z,101064.78
2022-12-25T16:25:25.973Z,101065.13
2022-12-25T16:27:53.333Z,101056.47
2022-12-25T16:30:20.720Z,101057.44
2022-12-25T16:32:51.080Z,101060.59
2022-12-25T16:35:18.582Z,101061.00
2022-12-25T16:37:45.990Z,101065.84
2022-12-25T16:40:13.430Z,101065.97
2022-12-25T16:42:40.776Z,101069.53
2022-12-25T16:45:08.418Z,101062.31
2022-12-25T16:47:36.150Z,101050.13
2022-12-25T16:50:05.135Z,101055.13
2022-12-25T16:52:34.702Z,101045.34
2022-12-25T16:55:03.059Z,101042.19
2022-12-25T16:57:32.748Z,101036.81
2022-12-25T17:00:00.194Z,101048.91
2022-12-25T17:02:27.985Z,101047.06
2022-12-25T17:04:55.431Z,101045.34
2022-12-25T17:07:22.791Z,101035.47
2022-12-25T17:09:50.219Z,101030.59
2022-12-25T17:12:17.698Z,101039.00
2022-12-25T17:14:45.159Z,101036.31
2022-12-25T17:17:12.629Z,101020.72
2022-12-25T17:19:40.009Z,101032.66
2022-12-25T17:22:07.541Z,101033.53
2022-12-25T17:24:37.347Z,101033.63
2022-12-25T17:27:08.596Z,101029.97
2022-12-25T17:29:36.906Z,101017.19
2022-12-25T17:32:04.242Z,101024.72
2022-12-25T17:34:31.601Z,101018.03
2022-12-25T17:36:59.089Z,101027.31
2022-12-25T17:39:26.584Z,101027.31
2022-12-25T17:41:53.978Z,101029.97
2022-12-25T17:44:21.663Z,101021.19
2022-12-25T17:46:50.514Z,101034.38
2022-12-25T17:49:20.602Z,101026.44
2022-12-25T17:51:48.310Z,101022.78
2022-12-25T17:54:15.855Z,101022.16
2022-12-25T17:56:43.190Z,101015.94
2022-12-25T17:59:18.126Z,101019.13
2022-12-25T18:01:47.077Z,101023.53
2022-12-25T18:04:14.843Z,101014.84
2022-12-25T18:06:42.203Z,101021.56
2022-12-25T18:09:11.293Z,101013.13
2022-12-25T18:11:41.810Z,101026.94
2022-12-25T18:14:12.498Z,101028.78
2022-12-25T18:16:43.377Z,101029.63
2022-12-25T18:19:12.275Z,101017.53
2022-12-25T18:21:40.239Z,101023.41
2022-12-25T18:24:08.559Z,101018.03
2022-12-25T18:26:36.352Z,101011.69
2022-12-25T18:29:04.359Z,101013.53
2022-12-25T18:31:31.893Z,101015.34
2022-12-25T18:34:00.493Z,101009.97
2022-12-25T18:36:29.641Z,101010.72
2022-12-25T18:38:57.965Z,101000.84
2022-12-25T18:41:25.453Z,100977.25
2022-12-25T18:43:55.596Z,100987.41
2022-12-25T18:46:25.453Z,100982.03
2022-12-25T18:48:55.107Z,100970.78
2022-12-25T18:51:23.119Z,100981.41
2022-12-25T18:53:51.346Z,100982.78
2022-12-25T18:56:20.428Z,100980.09
2022-12-25T18:58:48.120Z,100980.22
2022-12-25T19:01:21.891Z,100983.88
2022-12-25T19:03:50.801Z,100983.25
2022-12-25T19:06:20.687Z,100983.88
2022-12-25T19:08:48.453Z,100976.66
2022-12-25T19:11:16.214Z,100956.53
2022-12-25T19:13:44.497Z,100955.19
2022-12-25T19:16:12.528Z,100961.41
2022-12-25T19:18:40.178Z,100949.81
2022-12-25T19:21:09.651Z,100942.63
2022-12-25T19:23:38.134Z,100939.06
2022-12-25T19:26:07.381Z,100933.22
2022-12-25T19:28:35.366Z,100938.69
2022-12-25T19:31:04.640Z,100956.03
2022-12-25T19:33:32.619Z,100958.72
2022-12-25T19:36:04.828Z,100965.81
2022-12-25T19:38:32.754Z,100966.66
2022-12-25T19:41:04.893Z,100961.03
2022-12-25T19:43:36.089Z,100967.75
2022-12-25T19:46:04.658Z,100972.50
2022-12-25T19:48:33.975Z,100973.88
2022-12-25T19:51:01.571Z,100970.78
2022-12-25T19:53:30.212Z,100981.91
2022-12-25T19:56:01.971Z,100980.22
2022-12-25T19:58:29.965Z,100983.00
2022-12-25T20:00:58.282Z,100971.28
2022-12-25T20:03:26.732Z,100971.19
2022-12-25T20:05:54.225Z,100971.19
2022-12-25T20:08:21.576Z,100962.38
2022-12-25T20:10:49.514Z,100971.28
2022-12-25T20:13:17.518Z,100974.84
2022-12-25T20:15:44.973Z,100967.75
2022-12-25T20:18:12.390Z,100963.25
2022-12-25T20:20:40.069Z,100967.53
2022-12-25T20:23:07.531Z,100974.72
2022-12-25T20:25:38.552Z,100981.81
2022-12-25T20:28:06.003Z,100971.66
2022-12-25T20:30:38.118Z,100988.03
2022-12-25T20:33:05.656Z,100974.72
2022-12-25T20:35:33.098Z,100974.59
2022-12-25T20:38:00.396Z,100980.81
2022-12-25T20:40:27.784Z,100983.50
2022-12-25T20:42:55.652Z,100990.72
2022-12-25T20:45:23.019Z,100977.75
2022-12-25T20:47:50.571Z,100989.75
2022-12-25T20:50:17.998Z,100974.59
2022-12-25T20:52:45.432Z,100971.91
2022-12-25T20:55:14.081Z,100975.56
2022-12-25T20:57:41.616Z,100959.94
2022-12-25T21:00:10.758Z,100965.06
2022-12-25T21:02:38.590Z,100971.19
2022-12-25T21:05:07.972Z,100957.88
2022-12-25T21:07:35.335Z,100957.88
2022-12-25T21:10:04.212Z,100947.13
2022-12-25T21:12:31.690Z,100944.44
2022-12-25T21:14:59.072Z,100944.91
2022-12-25T21:17:26.908Z,100950.66
2022-12-25T21:19:54.259Z,100939.06
2022-12-25T21:22:21.583Z,100933.59
2022-12-25T21:24:51.930Z,100933.72
2022-12-25T21:27:19.342Z,100931.03
2022-12-25T21:29:46.718Z,100947.13
2022-12-25T21:32:32.766Z,100954.34
2022-12-25T21:35:00.163Z,100960.56
2022-12-25T21:37:27.498Z,100952.38
2022-12-25T21:39:54.929Z,100926.50
2022-12-25T21:42:22.283Z,100923.81
2022-12-25T21:44:49.928Z,100921.13
2022-12-25T21:47:17.292Z,100940.91
2022-12-25T21:50:03.403Z,100929.19
2022-12-25T21:52:30.819Z,100913.19
2022-12-25T21:54:58.238Z,100919.44
2022-12-25T21:57:26.035Z,100929.19
2022-12-25T21:59:53.343Z,100928.34
2022-12-25T22:02:20.807Z,100928.44
2022-12-25T22:04:48.271Z,100937.38
2022-12-25T22:07:18.656Z,100922.09
2022-12-25T22:09:48.094Z,100919.44
2022-12-25T22:12:35.600Z,100917.59
2022-12-25T22:15:09.633Z,100904.66
2022-12-25T22:17:58.873Z,100906.97
2022-12-25T22:20:30.761Z,100901.13
2022-12-25T22:22:58.436Z,100902.47
2022-12-25T22:25:26.579Z,100907.94
2022-12-25T22:27:54.203Z,100893.19
2022-12-25T22:30:24.231Z,100899.78
2022-12-25T22:32:52.388Z,100895.38
2022-12-25T22:35:20.472Z,100894.53
2022-12-25T22:37:48.329Z,100885.50
2022-12-25T22:40:17.983Z,100881.09
2022-12-25T22:42:45.394Z,100868.66
2022-12-25T22:45:12.932Z,100848.63
2022-12-25T22:47:41.047Z,100853.75
2022-12-25T22:50:09.509Z,100867.78
2022-12-25T22:52:37.431Z,100875.72
2022-12-25T22:55:05.933Z,100864.13
2022-12-25T22:57:33.410Z,100855.59
2022-12-25T23:00:00.942Z,100867.69
2022-12-25T23:02:28.852Z,100861.44
2022-12-25T23:04:56.393Z,100841.31
2022-12-25T23:07:23.803Z,100855.22
2022-12-25T23:09:52.628Z,100856.19
2022-12-25T23:12:39.193Z,100844.59
2022-12-25T23:15:07.119Z,100837.03
2022-12-25T23:17:53.192Z,100837.66
2022-12-25T23:20:39.400Z,100836.69
2022-12-25T23:23:25.381Z,100824.84
2022-12-25T23:26:07.791Z,100829.22
2022-12-25T23:28:56.209Z,100825.69
2022-12-25T23:31:28.454Z,100849.00
2022-12-25T23:33:56.104Z,100863.03
2022-12-25T23:36:23.702Z,100847.16
2022-12-25T23:38:51.110Z,100878.06
2022-12-25T23:41:19.256Z,100898.56
2022-12-25T23:43:46.696Z,100892.19
2022-12-25T23:46:14.189Z,100892.19
2022-12-25T23:48:41.727Z,100887.66
2022-12-25T23:51:09.142Z,100891.22
2022-12-25T23:53:36.566Z,100880.34
2022-12-25T23:56:04.143Z,100885.72
2022-12-25T23:58:33.055Z,100888.41
